sensor_id;sensor_type;location;lat;lon;timestamp;P1;durP1;ratioP1;P2;durP2;ratioP2
64110;SDS011;50401;48.188;11.566;2024-02-23T00:00:37;0.40;;;0.30;;
64110;SDS011;50401;48.188;11.566;2024-02-23T00:03:02;0.17;;;0.17;;
64110;SDS011;50401;48.188;11.566;2024-02-23T00:05:28;0.22;;;0.22;;
64110;SDS011;50401;48.188;11.566;2024-02-23T00:07:53;1.40;;;0.20;;
64110;SDS011;50401;48.188;11.566;2024-02-23T00:10:18;0.30;;;0.30;;
64110;SDS011;50401;48.188;11.566;2024-02-23T00:12:44;1.13;;;0.30;;
64110;SDS011;50401;48.188;11.566;2024-02-23T00:15:09;0.55;;;0.52;;
64110;SDS011;50401;48.188;11.566;2024-02-23T00:17:35;1.35;;;0.40;;
64110;SDS011;50401;48.188;11.566;2024-02-23T00:20:00;1.15;;;0.30;;
64110;SDS011;50401;48.188;11.566;2024-02-23T00:22:26;0.88;;;0.30;;
64110;SDS011;50401;48.188;11.566;2024-02-23T00:24:51;0.30;;;0.15;;
64110;SDS011;50401;48.188;11.566;2024-02-23T00:27:17;0.20;;;0.20;;
64110;SDS011;50401;48.188;11.566;2024-02-23T00:29:42;0.52;;;0.30;;
64110;SDS011;50401;48.188;11.566;2024-02-23T00:32:07;0.28;;;0.28;;
64110;SDS011;50401;48.188;11.566;2024-02-23T00:34:33;0.22;;;0.22;;
64110;SDS011;50401;48.188;11.566;2024-02-23T00:36:58;0.47;;;0.10;;
64110;SDS011;50401;48.188;11.566;2024-02-23T00:39:24;1.20;;;0.20;;
64110;SDS011;50401;48.188;11.566;2024-02-23T00:41:49;1.30;;;0.20;;
64110;SDS011;50401;48.188;11.566;2024-02-23T00:44:15;0.20;;;0.20;;
64110;SDS011;50401;48.188;11.566;2024-02-23T00:46:40;0.25;;;0.25;;
64110;SDS011;50401;48.188;11.566;2024-02-23T00:49:05;0.20;;;0.20;;
64110;SDS011;50401;48.188;11.566;2024-02-23T00:51:31;0.55;;;0.10;;
64110;SDS011;50401;48.188;11.566;2024-02-23T00:53:57;0.17;;;0.17;;
64110;SDS011;50401;48.188;11.566;2024-02-23T00:56:22;0.32;;;0.20;;
64110;SDS011;50401;48.188;11.566;2024-02-23T00:58:48;0.20;;;0.20;;
64110;SDS011;50401;48.188;11.566;2024-02-23T01:01:13;0.10;;;0.10;;
64110;SDS011;50401;48.188;11.566;2024-02-23T01:03:39;0.20;;;0.20;;
64110;SDS011;50401;48.188;11.566;2024-02-23T01:06:04;0.95;;;0.10;;
64110;SDS011;50401;48.188;11.566;2024-02-23T01:08:29;0.30;;;0.10;;
64110;SDS011;50401;48.188;11.566;2024-02-23T01:10:55;0.20;;;0.20;;
64110;SDS011;50401;48.188;11.566;2024-02-23T01:13:20;0.10;;;0.10;;
64110;SDS011;50401;48.188;11.566;2024-02-23T01:15:45;0.20;;;0.20;;
64110;SDS011;50401;48.188;11.566;2024-02-23T01:18:11;0.52;;;0.20;;
64110;SDS011;50401;48.188;11.566;2024-02-23T01:20:36;1.48;;;0.38;;
64110;SDS011;50401;48.188;11.566;2024-02-23T01:23:02;0.32;;;0.20;;
64110;SDS011;50401;48.188;11.566;2024-02-23T01:25:27;0.50;;;0.20;;
64110;SDS011;50401;48.188;11.566;2024-02-23T01:27:52;0.55;;;0.20;;
64110;SDS011;50401;48.188;11.566;2024-02-23T01:30:18;0.10;;;0.10;;
64110;SDS011;50401;48.188;11.566;2024-02-23T01:32:44;0.55;;;0.20;;
64110;SDS011;50401;48.188;11.566;2024-02-23T01:35:10;0.52;;;0.10;;
64110;SDS011;50401;48.188;11.566;2024-02-23T01:37:35;0.57;;;0.45;;
64110;SDS011;50401;48.188;11.566;2024-02-23T01:40:01;0.30;;;0.15;;
64110;SDS011;50401;48.188;11.566;2024-02-23T01:42:27;1.17;;;0.35;;
64110;SDS011;50401;48.188;11.566;2024-02-23T01:44:53;0.20;;;0.20;;
64110;SDS011;50401;48.188;11.566;2024-02-23T01:47:20;0.50;;;0.20;;
64110;SDS011;50401;48.188;11.566;2024-02-23T01:49:46;1.45;;;0.10;;
64110;SDS011;50401;48.188;11.566;2024-02-23T01:52:12;0.52;;;0.20;;
64110;SDS011;50401;48.188;11.566;2024-02-23T01:54:39;0.52;;;0.10;;
64110;SDS011;50401;48.188;11.566;2024-02-23T01:57:04;0.10;;;0.10;;
64110;SDS011;50401;48.188;11.566;2024-02-23T01:59:31;0.30;;;0.10;;
64110;SDS011;50401;48.188;11.566;2024-02-23T02:01:57;0.10;;;0.10;;
64110;SDS011;50401;48.188;11.566;2024-02-23T02:04:22;0.10;;;0.10;;
64110;SDS011;50401;48.188;11.566;2024-02-23T02:06:48;1.52;;;0.10;;
64110;SDS011;50401;48.188;11.566;2024-02-23T02:09:13;0.10;;;0.10;;
64110;SDS011;50401;48.188;11.566;2024-02-23T02:11:48;0.20;;;0.13;;
64110;SDS011;50401;48.188;11.566;2024-02-23T02:14:14;0.10;;;0.10;;
64110;SDS011;50401;48.188;11.566;2024-02-23T02:16:40;0.25;;;0.17;;
64110;SDS011;50401;48.188;11.566;2024-02-23T02:19:05;0.10;;;0.10;;
64110;SDS011;50401;48.188;11.566;2024-02-23T02:21:33;0.10;;;0.10;;
64110;SDS011;50401;48.188;11.566;2024-02-23T02:23:59;0.05;;;0.05;;
64110;SDS011;50401;48.188;11.566;2024-02-23T02:26:25;0.10;;;0.10;;
64110;SDS011;50401;48.188;11.566;2024-02-23T02:28:50;0.15;;;0.10;;
64110;SDS011;50401;48.188;11.566;2024-02-23T02:31:17;0.10;;;0.10;;
64110;SDS011;50401;48.188;11.566;2024-02-23T02:33:43;0.10;;;0.10;;
64110;SDS011;50401;48.188;11.566;2024-02-23T02:36:08;0.45;;;0.20;;
64110;SDS011;50401;48.188;11.566;2024-02-23T02:38:34;0.10;;;0.10;;
64110;SDS011;50401;48.188;11.566;2024-02-23T02:40:59;0.10;;;0.10;;
64110;SDS011;50401;48.188;11.566;2024-02-23T02:43:27;0.10;;;0.10;;
64110;SDS011;50401;48.188;11.566;2024-02-23T02:45:53;0.17;;;0.10;;
64110;SDS011;50401;48.188;11.566;2024-02-23T02:48:18;0.30;;;0.30;;
64110;SDS011;50401;48.188;11.566;2024-02-23T02:50:44;1.27;;;0.25;;
64110;SDS011;50401;48.188;11.566;2024-02-23T02:53:09;2.25;;;0.10;;
64110;SDS011;50401;48.188;11.566;2024-02-23T02:55:35;0.20;;;0.20;;
64110;SDS011;50401;48.188;11.566;2024-02-23T02:58:12;2.40;;;0.35;;
64110;SDS011;50401;48.188;11.566;2024-02-23T03:00:38;0.75;;;0.20;;
64110;SDS011;50401;48.188;11.566;2024-02-23T03:03:04;0.20;;;0.20;;
64110;SDS011;50401;48.188;11.566;2024-02-23T03:05:29;0.10;;;0.10;;
64110;SDS011;50401;48.188;11.566;2024-02-23T03:07:55;0.38;;;0.10;;
64110;SDS011;50401;48.188;11.566;2024-02-23T03:10:20;0.15;;;0.15;;
64110;SDS011;50401;48.188;11.566;2024-02-23T03:12:46;0.15;;;0.15;;
64110;SDS011;50401;48.188;11.566;2024-02-23T03:15:11;0.52;;;0.17;;
64110;SDS011;50401;48.188;11.566;2024-02-23T03:17:37;0.22;;;0.10;;
64110;SDS011;50401;48.188;11.566;2024-02-23T03:20:03;0.10;;;0.10;;
64110;SDS011;50401;48.188;11.566;2024-02-23T03:22:36;0.40;;;0.20;;
64110;SDS011;50401;48.188;11.566;2024-02-23T03:25:02;1.05;;;0.30;;
64110;SDS011;50401;48.188;11.566;2024-02-23T03:27:33;0.10;;;0.10;;
64110;SDS011;50401;48.188;11.566;2024-02-23T03:29:59;0.93;;;0.30;;
64110;SDS011;50401;48.188;11.566;2024-02-23T03:32:24;1.38;;;0.20;;
64110;SDS011;50401;48.188;11.566;2024-02-23T03:34:50;0.15;;;0.15;;
64110;SDS011;50401;48.188;11.566;2024-02-23T03:37:15;0.15;;;0.15;;
64110;SDS011;50401;48.188;11.566;2024-02-23T03:39:40;1.55;;;0.17;;
64110;SDS011;50401;48.188;11.566;2024-02-23T03:42:06;0.52;;;0.30;;
64110;SDS011;50401;48.188;11.566;2024-02-23T03:44:31;0.30;;;0.20;;
64110;SDS011;50401;48.188;11.566;2024-02-23T03:46:56;0.13;;;0.13;;
64110;SDS011;50401;48.188;11.566;2024-02-23T03:49:22;0.40;;;0.20;;
64110;SDS011;50401;48.188;11.566;2024-02-23T03:51:47;0.20;;;0.20;;
64110;SDS011;50401;48.188;11.566;2024-02-23T03:54:13;1.23;;;0.40;;
64110;SDS011;50401;48.188;11.566;2024-02-23T03:56:38;1.35;;;0.45;;
64110;SDS011;50401;48.188;11.566;2024-02-23T03:59:06;0.95;;;0.30;;
64110;SDS011;50401;48.188;11.566;2024-02-23T04:01:34;0.17;;;0.10;;
64110;SDS011;50401;48.188;11.566;2024-02-23T04:04:00;0.40;;;0.35;;
64110;SDS011;50401;48.188;11.566;2024-02-23T04:06:25;0.85;;;0.20;;
64110;SDS011;50401;48.188;11.566;2024-02-23T04:08:50;2.38;;;0.30;;
64110;SDS011;50401;48.188;11.566;2024-02-23T04:11:16;1.08;;;0.30;;
64110;SDS011;50401;48.188;11.566;2024-02-23T04:13:41;1.95;;;0.50;;
64110;SDS011;50401;48.188;11.566;2024-02-23T04:16:06;1.92;;;0.40;;
64110;SDS011;50401;48.188;11.566;2024-02-23T04:18:32;0.38;;;0.30;;
64110;SDS011;50401;48.188;11.566;2024-02-23T04:20:57;1.02;;;0.30;;
64110;SDS011;50401;48.188;11.566;2024-02-23T04:23:22;1.90;;;0.30;;
64110;SDS011;50401;48.188;11.566;2024-02-23T04:25:48;0.40;;;0.20;;
64110;SDS011;50401;48.188;11.566;2024-02-23T04:28:13;2.83;;;0.30;;
64110;SDS011;50401;48.188;11.566;2024-02-23T04:30:38;0.52;;;0.32;;
64110;SDS011;50401;48.188;11.566;2024-02-23T04:33:04;0.60;;;0.30;;
64110;SDS011;50401;48.188;11.566;2024-02-23T04:35:29;1.08;;;0.25;;
64110;SDS011;50401;48.188;11.566;2024-02-23T04:37:55;2.55;;;0.55;;
64110;SDS011;50401;48.188;11.566;2024-02-23T04:40:20;1.15;;;0.50;;
64110;SDS011;50401;48.188;11.566;2024-02-23T04:42:45;0.20;;;0.20;;
64110;SDS011;50401;48.188;11.566;2024-02-23T04:45:12;2.20;;;0.40;;
64110;SDS011;50401;48.188;11.566;2024-02-23T04:47:37;0.90;;;0.30;;
64110;SDS011;50401;48.188;11.566;2024-02-23T04:50:05;0.40;;;0.20;;
64110;SDS011;50401;48.188;11.566;2024-02-23T04:52:31;0.20;;;0.20;;
64110;SDS011;50401;48.188;11.566;2024-02-23T04:54:57;0.77;;;0.30;;
64110;SDS011;50401;48.188;11.566;2024-02-23T04:57:22;1.65;;;0.20;;
64110;SDS011;50401;48.188;11.566;2024-02-23T04:59:47;1.90;;;0.20;;
64110;SDS011;50401;48.188;11.566;2024-02-23T05:02:13;0.47;;;0.30;;
64110;SDS011;50401;48.188;11.566;2024-02-23T05:04:39;0.20;;;0.20;;
64110;SDS011;50401;48.188;11.566;2024-02-23T05:07:04;1.00;;;0.40;;
64110;SDS011;50401;48.188;11.566;2024-02-23T05:09:30;1.85;;;0.30;;
64110;SDS011;50401;48.188;11.566;2024-02-23T05:11:56;2.03;;;0.43;;
64110;SDS011;50401;48.188;11.566;2024-02-23T05:14:22;2.78;;;0.38;;
64110;SDS011;50401;48.188;11.566;2024-02-23T05:16:47;0.43;;;0.30;;
64110;SDS011;50401;48.188;11.566;2024-02-23T05:19:13;0.82;;;0.38;;
64110;SDS011;50401;48.188;11.566;2024-02-23T05:21:38;3.47;;;0.70;;
64110;SDS011;50401;48.188;11.566;2024-02-23T05:24:03;3.85;;;1.00;;
64110;SDS011;50401;48.188;11.566;2024-02-23T05:26:31;1.85;;;0.63;;
64110;SDS011;50401;48.188;11.566;2024-02-23T05:28:56;0.82;;;0.52;;
64110;SDS011;50401;48.188;11.566;2024-02-23T05:31:23;1.23;;;0.77;;
64110;SDS011;50401;48.188;11.566;2024-02-23T05:34:11;3.95;;;0.70;;
64110;SDS011;50401;48.188;11.566;2024-02-23T05:36:36;5.38;;;0.85;;
64110;SDS011;50401;48.188;11.566;2024-02-23T05:39:02;0.82;;;0.50;;
64110;SDS011;50401;48.188;11.566;2024-02-23T05:41:27;1.15;;;0.65;;
64110;SDS011;50401;48.188;11.566;2024-02-23T05:43:53;1.95;;;1.05;;
64110;SDS011;50401;48.188;11.566;2024-02-23T05:46:18;6.75;;;0.98;;
64110;SDS011;50401;48.188;11.566;2024-02-23T05:48:43;2.20;;;0.70;;
64110;SDS011;50401;48.188;11.566;2024-02-23T05:51:09;2.30;;;0.60;;
64110;SDS011;50401;48.188;11.566;2024-02-23T05:53:34;3.92;;;1.02;;
64110;SDS011;50401;48.188;11.566;2024-02-23T05:56:00;8.32;;;1.58;;
64110;SDS011;50401;48.188;11.566;2024-02-23T05:58:25;1.45;;;0.70;;
64110;SDS011;50401;48.188;11.566;2024-02-23T06:00:50;1.38;;;0.70;;
64110;SDS011;50401;48.188;11.566;2024-02-23T06:03:16;8.70;;;1.25;;
64110;SDS011;50401;48.188;11.566;2024-02-23T06:05:43;4.18;;;1.10;;
64110;SDS011;50401;48.188;11.566;2024-02-23T06:08:08;2.30;;;1.23;;
64110;SDS011;50401;48.188;11.566;2024-02-23T06:10:34;1.90;;;0.90;;
64110;SDS011;50401;48.188;11.566;2024-02-23T06:12:59;6.70;;;1.10;;
64110;SDS011;50401;48.188;11.566;2024-02-23T06:15:25;3.28;;;1.20;;
64110;SDS011;50401;48.188;11.566;2024-02-23T06:17:50;5.53;;;0.88;;
64110;SDS011;50401;48.188;11.566;2024-02-23T06:20:16;7.72;;;1.20;;
64110;SDS011;50401;48.188;11.566;2024-02-23T06:22:41;1.92;;;0.90;;
64110;SDS011;50401;48.188;11.566;2024-02-23T06:25:07;2.20;;;1.00;;
64110;SDS011;50401;48.188;11.566;2024-02-23T06:27:33;2.60;;;0.90;;
64110;SDS011;50401;48.188;11.566;2024-02-23T06:29:58;4.53;;;0.80;;
64110;SDS011;50401;48.188;11.566;2024-02-23T06:32:23;2.25;;;0.90;;
64110;SDS011;50401;48.188;11.566;2024-02-23T06:34:49;2.70;;;0.90;;
64110;SDS011;50401;48.188;11.566;2024-02-23T06:37:14;14.73;;;1.20;;
64110;SDS011;50401;48.188;11.566;2024-02-23T06:39:39;3.08;;;0.70;;
64110;SDS011;50401;48.188;11.566;2024-02-23T06:42:05;5.38;;;1.00;;
64110;SDS011;50401;48.188;11.566;2024-02-23T06:44:30;1.33;;;0.70;;
64110;SDS011;50401;48.188;11.566;2024-02-23T06:46:56;3.50;;;0.70;;
64110;SDS011;50401;48.188;11.566;2024-02-23T06:49:21;10.45;;;1.27;;
64110;SDS011;50401;48.188;11.566;2024-02-23T06:51:47;5.82;;;1.20;;
64110;SDS011;50401;48.188;11.566;2024-02-23T06:54:12;2.13;;;1.10;;
64110;SDS011;50401;48.188;11.566;2024-02-23T06:56:37;3.30;;;1.02;;
64110;SDS011;50401;48.188;11.566;2024-02-23T06:59:03;1.30;;;0.88;;
64110;SDS011;50401;48.188;11.566;2024-02-23T07:01:29;6.05;;;1.40;;
64110;SDS011;50401;48.188;11.566;2024-02-23T07:03:56;2.97;;;1.20;;
64110;SDS011;50401;48.188;11.566;2024-02-23T07:06:21;2.92;;;0.90;;
64110;SDS011;50401;48.188;11.566;2024-02-23T07:08:46;1.95;;;0.77;;
64110;SDS011;50401;48.188;11.566;2024-02-23T07:11:12;3.50;;;1.23;;
64110;SDS011;50401;48.188;11.566;2024-02-23T07:13:37;2.85;;;1.10;;
64110;SDS011;50401;48.188;11.566;2024-02-23T07:16:03;3.55;;;0.90;;
64110;SDS011;50401;48.188;11.566;2024-02-23T07:18:28;1.58;;;0.90;;
64110;SDS011;50401;48.188;11.566;2024-02-23T07:20:54;4.75;;;1.70;;
64110;SDS011;50401;48.188;11.566;2024-02-23T07:23:19;5.40;;;1.45;;
64110;SDS011;50401;48.188;11.566;2024-02-23T07:25:45;4.25;;;1.42;;
64110;SDS011;50401;48.188;11.566;2024-02-23T07:28:10;4.40;;;1.60;;
64110;SDS011;50401;48.188;11.566;2024-02-23T07:30:35;8.98;;;3.67;;
64110;SDS011;50401;48.188;11.566;2024-02-23T07:33:01;6.40;;;2.38;;
64110;SDS011;50401;48.188;11.566;2024-02-23T07:35:26;2.65;;;1.20;;
64110;SDS011;50401;48.188;11.566;2024-02-23T07:37:52;5.25;;;1.60;;
64110;SDS011;50401;48.188;11.566;2024-02-23T07:40:18;3.80;;;0.90;;
64110;SDS011;50401;48.188;11.566;2024-02-23T07:42:43;4.00;;;0.98;;
64110;SDS011;50401;48.188;11.566;2024-02-23T07:45:09;4.18;;;0.88;;
64110;SDS011;50401;48.188;11.566;2024-02-23T07:47:35;8.07;;;1.08;;
64110;SDS011;50401;48.188;11.566;2024-02-23T07:50:01;3.05;;;1.20;;
64110;SDS011;50401;48.188;11.566;2024-02-23T07:52:26;3.08;;;1.00;;
64110;SDS011;50401;48.188;11.566;2024-02-23T07:54:52;9.85;;;1.20;;
64110;SDS011;50401;48.188;11.566;2024-02-23T07:57:21;6.72;;;1.10;;
64110;SDS011;50401;48.188;11.566;2024-02-23T07:59:47;3.72;;;1.02;;
64110;SDS011;50401;48.188;11.566;2024-02-23T08:02:13;4.88;;;1.42;;
64110;SDS011;50401;48.188;11.566;2024-02-23T08:04:39;4.78;;;1.13;;
64110;SDS011;50401;48.188;11.566;2024-02-23T08:07:05;5.70;;;1.50;;
64110;SDS011;50401;48.188;11.566;2024-02-23T08:09:30;10.85;;;1.70;;
64110;SDS011;50401;48.188;11.566;2024-02-23T08:11:56;5.85;;;2.22;;
64110;SDS011;50401;48.188;11.566;2024-02-23T08:14:21;5.45;;;1.45;;
64110;SDS011;50401;48.188;11.566;2024-02-23T08:16:46;5.15;;;1.40;;
64110;SDS011;50401;48.188;11.566;2024-02-23T08:19:12;7.68;;;2.95;;
64110;SDS011;50401;48.188;11.566;2024-02-23T08:21:37;4.72;;;1.77;;
64110;SDS011;50401;48.188;11.566;2024-02-23T08:24:04;6.10;;;1.52;;
64110;SDS011;50401;48.188;11.566;2024-02-23T08:26:29;6.05;;;1.40;;
64110;SDS011;50401;48.188;11.566;2024-02-23T08:28:54;6.72;;;1.38;;
64110;SDS011;50401;48.188;11.566;2024-02-23T08:31:20;6.10;;;1.10;;
64110;SDS011;50401;48.188;11.566;2024-02-23T08:33:45;4.15;;;1.30;;
64110;SDS011;50401;48.188;11.566;2024-02-23T08:36:12;5.80;;;1.60;;
64110;SDS011;50401;48.188;11.566;2024-02-23T08:38:37;6.53;;;1.30;;
64110;SDS011;50401;48.188;11.566;2024-02-23T08:41:02;11.70;;;2.13;;
64110;SDS011;50401;48.188;11.566;2024-02-23T08:43:28;13.27;;;2.42;;
64110;SDS011;50401;48.188;11.566;2024-02-23T08:45:53;4.97;;;1.58;;
64110;SDS011;50401;48.188;11.566;2024-02-23T08:48:19;11.65;;;1.38;;
64110;SDS011;50401;48.188;11.566;2024-02-23T08:50:44;7.10;;;1.17;;
64110;SDS011;50401;48.188;11.566;2024-02-23T08:53:09;14.50;;;1.40;;
64110;SDS011;50401;48.188;11.566;2024-02-23T08:55:35;13.25;;;1.38;;
64110;SDS011;50401;48.188;11.566;2024-02-23T08:58:00;20.52;;;2.20;;
64110;SDS011;50401;48.188;11.566;2024-02-23T09:00:26;19.20;;;2.17;;
64110;SDS011;50401;48.188;11.566;2024-02-23T09:02:51;27.35;;;2.17;;
64110;SDS011;50401;48.188;11.566;2024-02-23T09:05:16;17.67;;;1.77;;
64110;SDS011;50401;48.188;11.566;2024-02-23T09:07:42;14.05;;;1.50;;
64110;SDS011;50401;48.188;11.566;2024-02-23T09:10:07;25.20;;;2.67;;
64110;SDS011;50401;48.188;11.566;2024-02-23T09:12:33;11.93;;;1.55;;
64110;SDS011;50401;48.188;11.566;2024-02-23T09:14:59;21.58;;;2.28;;
64110;SDS011;50401;48.188;11.566;2024-02-23T09:17:24;33.53;;;6.82;;
64110;SDS011;50401;48.188;11.566;2024-02-23T09:19:50;9.32;;;1.83;;
64110;SDS011;50401;48.188;11.566;2024-02-23T09:22:16;34.25;;;2.70;;
64110;SDS011;50401;48.188;11.566;2024-02-23T09:24:41;19.88;;;2.60;;
64110;SDS011;50401;48.188;11.566;2024-02-23T09:27:07;34.30;;;2.28;;
64110;SDS011;50401;48.188;11.566;2024-02-23T09:29:32;18.42;;;3.92;;
64110;SDS011;50401;48.188;11.566;2024-02-23T09:31:58;27.67;;;2.85;;
64110;SDS011;50401;48.188;11.566;2024-02-23T09:34:24;15.75;;;1.05;;
64110;SDS011;50401;48.188;11.566;2024-02-23T09:36:50;19.00;;;2.08;;
64110;SDS011;50401;48.188;11.566;2024-02-23T09:39:15;19.08;;;2.03;;
64110;SDS011;50401;48.188;11.566;2024-02-23T09:41:40;44.97;;;4.70;;
64110;SDS011;50401;48.188;11.566;2024-02-23T09:44:07;35.20;;;2.03;;
64110;SDS011;50401;48.188;11.566;2024-02-23T09:46:34;14.95;;;1.85;;
64110;SDS011;50401;48.188;11.566;2024-02-23T09:49:02;35.28;;;1.95;;
64110;SDS011;50401;48.188;11.566;2024-02-23T09:51:28;15.20;;;1.77;;
64110;SDS011;50401;48.188;11.566;2024-02-23T09:53:54;20.23;;;1.40;;
64110;SDS011;50401;48.188;11.566;2024-02-23T09:56:20;38.33;;;7.45;;
64110;SDS011;50401;48.188;11.566;2024-02-23T09:58:50;48.75;;;7.30;;
64110;SDS011;50401;48.188;11.566;2024-02-23T10:01:27;8.43;;;2.13;;
64110;SDS011;50401;48.188;11.566;2024-02-23T10:03:56;16.45;;;1.85;;
64110;SDS011;50401;48.188;11.566;2024-02-23T10:06:22;7.63;;;1.77;;
64110;SDS011;50401;48.188;11.566;2024-02-23T10:08:49;23.02;;;4.95;;
64110;SDS011;50401;48.188;11.566;2024-02-23T10:11:17;20.20;;;3.92;;
64110;SDS011;50401;48.188;11.566;2024-02-23T10:13:43;28.92;;;5.53;;
64110;SDS011;50401;48.188;11.566;2024-02-23T10:16:08;20.90;;;2.58;;
64110;SDS011;50401;48.188;11.566;2024-02-23T10:18:34;8.07;;;1.48;;
64110;SDS011;50401;48.188;11.566;2024-02-23T10:20:59;17.98;;;2.35;;
64110;SDS011;50401;48.188;11.566;2024-02-23T10:23:24;6.82;;;1.92;;
64110;SDS011;50401;48.188;11.566;2024-02-23T10:25:50;7.03;;;1.90;;
64110;SDS011;50401;48.188;11.566;2024-02-23T10:28:15;8.73;;;1.92;;
64110;SDS011;50401;48.188;11.566;2024-02-23T10:30:42;15.00;;;1.95;;
64110;SDS011;50401;48.188;11.566;2024-02-23T10:33:07;11.48;;;1.55;;
64110;SDS011;50401;48.188;11.566;2024-02-23T10:35:34;8.07;;;1.27;;
64110;SDS011;50401;48.188;11.566;2024-02-23T10:38:05;15.25;;;1.58;;
64110;SDS011;50401;48.188;11.566;2024-02-23T10:40:34;13.18;;;2.58;;
64110;SDS011;50401;48.188;11.566;2024-02-23T10:43:06;8.57;;;1.55;;
64110;SDS011;50401;48.188;11.566;2024-02-23T10:45:38;15.38;;;2.10;;
64110;SDS011;50401;48.188;11.566;2024-02-23T10:48:05;8.30;;;1.52;;
64110;SDS011;50401;48.188;11.566;2024-02-23T10:50:34;10.88;;;1.48;;
64110;SDS011;50401;48.188;11.566;2024-02-23T10:53:01;11.07;;;1.45;;
64110;SDS011;50401;48.188;11.566;2024-02-23T10:55:26;19.42;;;3.35;;
64110;SDS011;50401;48.188;11.566;2024-02-23T10:57:54;9.63;;;1.48;;
64110;SDS011;50401;48.188;11.566;2024-02-23T11:00:21;11.50;;;1.60;;
64110;SDS011;50401;48.188;11.566;2024-02-23T11:02:50;17.83;;;2.40;;
64110;SDS011;50401;48.188;11.566;2024-02-23T11:05:17;4.55;;;1.70;;
64110;SDS011;50401;48.188;11.566;2024-02-23T11:07:45;15.80;;;1.80;;
64110;SDS011;50401;48.188;11.566;2024-02-23T11:10:14;16.90;;;2.50;;
64110;SDS011;50401;48.188;11.566;2024-02-23T11:12:40;36.83;;;3.60;;
64110;SDS011;50401;48.188;11.566;2024-02-23T11:15:05;20.00;;;3.90;;
64110;SDS011;50401;48.188;11.566;2024-02-23T11:17:31;19.38;;;2.20;;
64110;SDS011;50401;48.188;11.566;2024-02-23T11:19:58;9.10;;;1.33;;
64110;SDS011;50401;48.188;11.566;2024-02-23T11:22:27;12.07;;;1.67;;
64110;SDS011;50401;48.188;11.566;2024-02-23T11:24:59;3.28;;;1.17;;
64110;SDS011;50401;48.188;11.566;2024-02-23T11:27:29;14.32;;;2.35;;
64110;SDS011;50401;48.188;11.566;2024-02-23T11:30:02;6.47;;;1.50;;
64110;SDS011;50401;48.188;11.566;2024-02-23T11:32:36;6.63;;;1.88;;
64110;SDS011;50401;48.188;11.566;2024-02-23T11:35:03;10.57;;;2.15;;
64110;SDS011;50401;48.188;11.566;2024-02-23T11:37:30;8.93;;;1.45;;
64110;SDS011;50401;48.188;11.566;2024-02-23T11:39:56;5.07;;;1.50;;
64110;SDS011;50401;48.188;11.566;2024-02-23T11:42:23;9.68;;;1.98;;
64110;SDS011;50401;48.188;11.566;2024-02-23T11:44:49;14.02;;;1.70;;
64110;SDS011;50401;48.188;11.566;2024-02-23T11:47:15;9.80;;;1.73;;
64110;SDS011;50401;48.188;11.566;2024-02-23T11:49:42;3.88;;;1.50;;
64110;SDS011;50401;48.188;11.566;2024-02-23T11:52:07;11.43;;;1.67;;
64110;SDS011;50401;48.188;11.566;2024-02-23T11:54:32;15.68;;;2.08;;
64110;SDS011;50401;48.188;11.566;2024-02-23T11:56:58;9.77;;;2.28;;
64110;SDS011;50401;48.188;11.566;2024-02-23T11:59:25;2.90;;;1.33;;
64110;SDS011;50401;48.188;11.566;2024-02-23T12:01:50;10.95;;;2.15;;
64110;SDS011;50401;48.188;11.566;2024-02-23T12:04:16;6.00;;;1.02;;
64110;SDS011;50401;48.188;11.566;2024-02-23T12:06:42;7.25;;;1.90;;
64110;SDS011;50401;48.188;11.566;2024-02-23T12:09:07;9.93;;;1.60;;
64110;SDS011;50401;48.188;11.566;2024-02-23T12:11:33;13.90;;;2.53;;
64110;SDS011;50401;48.188;11.566;2024-02-23T12:13:59;6.88;;;1.90;;
64110;SDS011;50401;48.188;11.566;2024-02-23T12:16:27;1.65;;;0.80;;
64110;SDS011;50401;48.188;11.566;2024-02-23T12:18:53;6.38;;;2.25;;
64110;SDS011;50401;48.188;11.566;2024-02-23T12:21:21;8.40;;;2.10;;
64110;SDS011;50401;48.188;11.566;2024-02-23T12:23:48;4.68;;;1.65;;
64110;SDS011;50401;48.188;11.566;2024-02-23T12:26:16;11.68;;;2.25;;
64110;SDS011;50401;48.188;11.566;2024-02-23T12:28:42;7.88;;;1.27;;
64110;SDS011;50401;48.188;11.566;2024-02-23T12:31:09;6.45;;;1.55;;
64110;SDS011;50401;48.188;11.566;2024-02-23T12:33:35;13.75;;;2.05;;
64110;SDS011;50401;48.188;11.566;2024-02-23T12:36:02;8.48;;;1.77;;
64110;SDS011;50401;48.188;11.566;2024-02-23T12:38:28;11.07;;;1.65;;
64110;SDS011;50401;48.188;11.566;2024-02-23T12:40:54;7.72;;;1.20;;
64110;SDS011;50401;48.188;11.566;2024-02-23T12:43:20;8.90;;;1.98;;
64110;SDS011;50401;48.188;11.566;2024-02-23T12:45:53;10.77;;;1.73;;
64110;SDS011;50401;48.188;11.566;2024-02-23T12:48:19;9.10;;;1.33;;
64110;SDS011;50401;48.188;11.566;2024-02-23T12:50:46;9.30;;;2.45;;
64110;SDS011;50401;48.188;11.566;2024-02-23T12:53:31;5.10;;;1.50;;
64110;SDS011;50401;48.188;11.566;2024-02-23T12:56:01;5.22;;;1.38;;
64110;SDS011;50401;48.188;11.566;2024-02-23T12:58:27;15.18;;;2.05;;
64110;SDS011;50401;48.188;11.566;2024-02-23T13:00:53;8.63;;;1.48;;
64110;SDS011;50401;48.188;11.566;2024-02-23T13:03:18;6.03;;;1.10;;
64110;SDS011;50401;48.188;11.566;2024-02-23T13:05:44;5.18;;;1.45;;
64110;SDS011;50401;48.188;11.566;2024-02-23T13:08:09;12.13;;;3.08;;
64110;SDS011;50401;48.188;11.566;2024-02-23T13:10:34;19.13;;;2.70;;
64110;SDS011;50401;48.188;11.566;2024-02-23T13:13:00;9.43;;;2.80;;
64110;SDS011;50401;48.188;11.566;2024-02-23T13:15:26;14.60;;;2.25;;
64110;SDS011;50401;48.188;11.566;2024-02-23T13:17:51;5.63;;;1.92;;
64110;SDS011;50401;48.188;11.566;2024-02-23T13:20:17;12.80;;;2.05;;
64110;SDS011;50401;48.188;11.566;2024-02-23T13:22:42;12.00;;;1.60;;
64110;SDS011;50401;48.188;11.566;2024-02-23T13:25:08;6.50;;;2.00;;
64110;SDS011;50401;48.188;11.566;2024-02-23T13:27:33;8.30;;;1.70;;
64110;SDS011;50401;48.188;11.566;2024-02-23T13:29:59;14.10;;;1.85;;
64110;SDS011;50401;48.188;11.566;2024-02-23T13:32:24;20.33;;;2.10;;
64110;SDS011;50401;48.188;11.566;2024-02-23T13:34:49;13.68;;;2.15;;
64110;SDS011;50401;48.188;11.566;2024-02-23T13:37:17;13.23;;;2.47;;
64110;SDS011;50401;48.188;11.566;2024-02-23T13:39:43;4.32;;;2.20;;
64110;SDS011;50401;48.188;11.566;2024-02-23T13:42:08;10.75;;;1.60;;
64110;SDS011;50401;48.188;11.566;2024-02-23T13:44:35;5.82;;;1.50;;
64110;SDS011;50401;48.188;11.566;2024-02-23T13:47:00;8.32;;;1.17;;
64110;SDS011;50401;48.188;11.566;2024-02-23T13:49:26;2.83;;;0.90;;
64110;SDS011;50401;48.188;11.566;2024-02-23T13:51:51;6.57;;;2.22;;
64110;SDS011;50401;48.188;11.566;2024-02-23T13:54:17;10.70;;;1.88;;
64110;SDS011;50401;48.188;11.566;2024-02-23T13:56:42;7.82;;;1.55;;
64110;SDS011;50401;48.188;11.566;2024-02-23T13:59:07;2.80;;;1.00;;
64110;SDS011;50401;48.188;11.566;2024-02-23T14:01:33;9.63;;;1.20;;
64110;SDS011;50401;48.188;11.566;2024-02-23T14:03:58;3.85;;;0.85;;
64110;SDS011;50401;48.188;11.566;2024-02-23T14:06:24;3.97;;;0.80;;
64110;SDS011;50401;48.188;11.566;2024-02-23T14:08:49;2.33;;;1.20;;
64110;SDS011;50401;48.188;11.566;2024-02-23T14:11:14;9.40;;;0.90;;
64110;SDS011;50401;48.188;11.566;2024-02-23T14:13:40;5.55;;;2.58;;
64110;SDS011;50401;48.188;11.566;2024-02-23T14:16:05;6.78;;;1.88;;
64110;SDS011;50401;48.188;11.566;2024-02-23T14:18:32;12.77;;;1.63;;
64110;SDS011;50401;48.188;11.566;2024-02-23T14:21:02;8.80;;;1.20;;
64110;SDS011;50401;48.188;11.566;2024-02-23T14:23:28;4.75;;;1.40;;